Tampa, Florida
Traffic Map
Current Weather Conditions
Tampa, Florida
Scattered Clouds
Scattered Clouds
57°
Feels Like: 57°
Wind Chill: 57° Ceiling: Unl
Heat Index: 57° Visibility: 10mi
Dew Point: 43° Wind: 8mph
Humidity: 59% Direction: 10° (N)
Pressure: 30.24in Gusts: 0mph
Raw Report DataKTPA 310353Z 01007KT 10SM SCT250 14/06 A3024 RMK AO2 SLP240 T01390061
Traffic Incident Summary
Active as of:
Severity:
Category:
InformationThere was an issue retrieving the traffic information for this location. Please try a different location or try again shortly.
Advertisements
Track Severe Weather on mobile